createdAt,value
2018-07-06T00:00:56.981Z,16.55
2018-07-06T00:04:18.934Z,16.54
2018-07-06T00:07:40.658Z,16.49
2018-07-06T00:11:02.962Z,16.49
2018-07-06T00:14:25.867Z,16.45
2018-07-06T00:17:47.647Z,16.44
2018-07-06T00:21:09.582Z,16.46
2018-07-06T00:24:31.560Z,16.46
2018-07-06T00:27:54.408Z,16.38
2018-07-06T00:31:16.931Z,16.41
2018-07-06T00:34:39.748Z,16.41
2018-07-06T00:38:02.627Z,16.42
2018-07-06T00:41:25.630Z,16.42
2018-07-06T00:44:48.393Z,16.43
2018-07-06T00:48:10.986Z,16.42
2018-07-06T00:51:33.727Z,16.44
2018-07-06T00:54:55.628Z,16.44
2018-07-06T00:58:23.098Z,16.41
2018-07-06T01:01:45.498Z,16.42
2018-07-06T01:05:08.376Z,16.42
2018-07-06T01:08:32.020Z,16.42
2018-07-06T01:11:54.307Z,16.43
2018-07-06T01:15:21.418Z,16.41
2018-07-06T01:18:44.135Z,16.42
2018-07-06T01:22:06.891Z,16.43
2018-07-06T01:25:33.806Z,16.43
2018-07-06T01:28:55.876Z,16.42
2018-07-06T01:32:18.531Z,16.42
2018-07-06T01:35:41.399Z,16.41
2018-07-06T01:39:04.377Z,16.42
2018-07-06T01:42:26.911Z,16.42
2018-07-06T01:45:48.693Z,16.42
2018-07-06T01:49:11.410Z,16.41
2018-07-06T01:52:34.148Z,16.41
2018-07-06T01:55:56.882Z,16.43
2018-07-06T01:59:18.774Z,16.43
2018-07-06T02:02:40.610Z,16.42
2018-07-06T02:06:02.546Z,16.42
2018-07-06T02:09:24.224Z,16.42
2018-07-06T02:12:46.114Z,16.42
2018-07-06T02:16:08.003Z,16.41
2018-07-06T02:19:30.700Z,16.41
2018-07-06T02:22:53.041Z,16.41
2018-07-06T02:26:15.085Z,16.41
2018-07-06T02:29:36.947Z,16.40
2018-07-06T02:32:58.768Z,16.39
2018-07-06T02:36:20.758Z,16.40
2018-07-06T02:39:42.693Z,16.39
2018-07-06T02:43:05.558Z,16.40
2018-07-06T02:46:28.347Z,16.39
2018-07-06T02:49:51.177Z,16.37
2018-07-06T02:53:13.829Z,16.37
2018-07-06T02:56:36.562Z,16.38
2018-07-06T02:59:59.516Z,16.37
2018-07-06T03:03:21.270Z,16.38
2018-07-06T03:06:44.070Z,16.37
2018-07-06T03:10:06.595Z,16.38
2018-07-06T03:13:29.145Z,16.38
2018-07-06T03:16:51.102Z,16.37
2018-07-06T03:20:13.693Z,16.38
2018-07-06T03:23:36.397Z,16.38
2018-07-06T03:26:58.250Z,16.38
2018-07-06T03:30:19.967Z,16.39
2018-07-06T03:33:41.723Z,16.38
2018-07-06T03:37:03.974Z,16.38
2018-07-06T03:40:26.857Z,16.40
2018-07-06T03:43:49.731Z,16.42
2018-07-06T03:47:12.511Z,16.41
2018-07-06T03:50:35.157Z,16.42
2018-07-06T03:53:56.848Z,16.41
2018-07-06T03:57:18.718Z,16.43
2018-07-06T04:00:40.509Z,16.42
2018-07-06T04:04:02.307Z,16.42
2018-07-06T04:07:24.030Z,16.43
2018-07-06T04:10:46.696Z,16.45
2018-07-06T04:14:09.311Z,16.46
2018-07-06T04:17:32.855Z,16.46
2018-07-06T04:20:54.639Z,16.46
2018-07-06T04:24:16.364Z,16.48
2018-07-06T04:27:39.774Z,16.49
2018-07-06T04:31:01.613Z,16.50
2018-07-06T04:34:23.342Z,16.51
2018-07-06T04:37:45.113Z,16.52
2018-07-06T04:41:06.838Z,16.53
2018-07-06T04:44:29.237Z,16.55
2018-07-06T04:47:51.881Z,16.55
2018-07-06T04:51:14.713Z,16.56
2018-07-06T04:54:37.605Z,16.58
2018-07-06T04:58:00.342Z,16.59
2018-07-06T05:01:22.098Z,16.59
2018-07-06T05:04:43.980Z,16.61
2018-07-06T05:08:06.006Z,16.62
2018-07-06T05:11:27.713Z,16.63
2018-07-06T05:14:49.554Z,16.64
2018-07-06T05:18:11.433Z,16.64
2018-07-06T05:21:33.298Z,16.67
2018-07-06T05:24:56.102Z,16.67
2018-07-06T05:28:18.036Z,16.68
2018-07-06T05:31:40.154Z,16.69
2018-07-06T05:35:03.052Z,16.70
2018-07-06T05:38:25.285Z,16.69
2018-07-06T05:41:47.209Z,16.71
2018-07-06T05:45:09.018Z,16.73
2018-07-06T05:48:31.541Z,16.73
2018-07-06T05:51:54.566Z,16.76
2018-07-06T05:55:16.951Z,16.76
2018-07-06T05:58:39.601Z,16.77
2018-07-06T06:02:01.526Z,16.77
2018-07-06T06:05:24.130Z,16.78
2018-07-06T06:08:34.854Z,16.79
2018-07-06T06:11:40.424Z,16.81
2018-07-06T06:14:45.573Z,16.81
2018-07-06T06:17:51.092Z,16.83
2018-07-06T06:20:56.247Z,16.84
2018-07-06T06:24:02.111Z,16.86
2018-07-06T06:27:07.378Z,16.87
2018-07-06T06:30:12.565Z,16.88
2018-07-06T06:33:18.529Z,16.89
2018-07-06T06:36:24.427Z,16.92
2018-07-06T06:39:29.494Z,16.92
2018-07-06T06:42:35.226Z,16.94
2018-07-06T06:45:41.042Z,16.95
2018-07-06T06:48:46.193Z,16.95
2018-07-06T06:51:52.390Z,16.96
2018-07-06T06:54:57.293Z,16.98
2018-07-06T06:58:02.838Z,16.98
2018-07-06T07:01:10.147Z,17.01
2018-07-06T07:04:15.839Z,17.00
2018-07-06T07:07:20.951Z,16.99
2018-07-06T07:10:25.950Z,16.99
2018-07-06T07:13:32.186Z,16.98
2018-07-06T07:16:37.614Z,17.00
2018-07-06T07:19:42.770Z,17.01
2018-07-06T07:22:48.264Z,17.03
2018-07-06T07:25:53.982Z,17.02
2018-07-06T07:28:59.015Z,17.02
2018-07-06T07:32:04.556Z,17.05
2018-07-06T07:35:09.872Z,17.03
2018-07-06T07:38:14.988Z,17.02
2018-07-06T07:41:20.962Z,17.03
2018-07-06T07:44:26.674Z,17.03
2018-07-06T07:47:32.818Z,17.06
2018-07-06T07:50:48.599Z,17.05
2018-07-06T07:54:04.681Z,17.07
2018-07-06T07:57:10.830Z,17.08
2018-07-06T08:00:16.302Z,17.11
2018-07-06T08:03:21.280Z,17.13
2018-07-06T08:06:26.177Z,17.19
2018-07-06T08:09:32.142Z,17.24
2018-07-06T08:12:39.211Z,17.29
2018-07-06T08:15:44.946Z,17.34
2018-07-06T08:18:50.849Z,17.40
2018-07-06T08:21:55.964Z,17.48
2018-07-06T08:25:01.973Z,17.53
2018-07-06T08:28:07.448Z,17.57
2018-07-06T08:31:12.558Z,17.63
2018-07-06T08:34:28.937Z,17.68
2018-07-06T08:37:47.186Z,17.74
2018-07-06T08:40:51.981Z,17.78
2018-07-06T08:43:57.316Z,17.86
2018-07-06T08:47:02.158Z,17.93
2018-07-06T08:50:08.422Z,17.98
2018-07-06T08:53:15.698Z,18.07
2018-07-06T08:56:21.422Z,18.15
2018-07-06T08:59:26.227Z,18.25
2018-07-06T09:02:32.110Z,18.35
2018-07-06T09:05:37.926Z,18.44
2018-07-06T09:08:43.938Z,18.54
2018-07-06T09:11:49.037Z,18.64
2018-07-06T09:14:54.886Z,18.74
2018-07-06T09:18:00.423Z,18.83
2018-07-06T09:21:05.859Z,18.92
2018-07-06T09:24:12.211Z,19.03
2018-07-06T09:27:17.923Z,19.13
2018-07-06T09:30:23.540Z,19.23
2018-07-06T09:33:29.561Z,19.32
2018-07-06T09:36:34.792Z,19.45
2018-07-06T09:39:41.106Z,19.57
2018-07-06T09:42:46.234Z,19.69
2018-07-06T09:45:51.347Z,19.83
2018-07-06T09:48:57.201Z,19.96
2018-07-06T09:52:02.736Z,20.13
2018-07-06T09:55:07.818Z,20.25
2018-07-06T09:58:12.899Z,20.45
2018-07-06T10:01:18.753Z,20.64
2018-07-06T10:04:25.158Z,20.80
2018-07-06T10:07:31.150Z,21.01
2018-07-06T10:10:36.978Z,21.33
2018-07-06T10:13:42.334Z,21.50
2018-07-06T10:16:47.522Z,21.58
2018-07-06T10:19:52.688Z,21.47
2018-07-06T10:22:57.932Z,21.43
2018-07-06T10:26:03.433Z,21.34
2018-07-06T10:29:19.910Z,21.33
2018-07-06T10:32:26.787Z,21.32
2018-07-06T10:35:32.238Z,21.35
2018-07-06T10:38:37.572Z,21.39
2018-07-06T10:41:43.250Z,21.39
2018-07-06T10:44:48.405Z,21.46
2018-07-06T10:47:53.868Z,21.51
2018-07-06T10:50:59.976Z,21.54
2018-07-06T10:54:05.071Z,21.62
2018-07-06T10:57:10.258Z,21.70
2018-07-06T11:00:16.155Z,21.76
2018-07-06T11:03:22.191Z,21.80
2018-07-06T11:06:28.235Z,21.86
2018-07-06T11:09:33.331Z,21.90
2018-07-06T11:12:38.417Z,21.93
2018-07-06T11:15:43.716Z,21.97
2018-07-06T11:18:49.956Z,22.07
2018-07-06T11:21:55.700Z,22.11
2018-07-06T11:25:02.117Z,22.17
2018-07-06T11:28:08.378Z,22.18
2018-07-06T11:31:14.318Z,22.15
2018-07-06T11:34:19.449Z,22.20
2018-07-06T11:37:24.673Z,22.24
2018-07-06T11:40:30.160Z,22.30
2018-07-06T11:43:36.286Z,22.31
2018-07-06T11:46:41.385Z,22.35
2018-07-06T11:49:47.183Z,22.38
2018-07-06T11:52:52.328Z,22.40
2018-07-06T11:55:57.775Z,22.44
2018-07-06T11:59:04.062Z,22.45
2018-07-06T12:02:11.007Z,22.47
2018-07-06T12:05:16.742Z,22.52
2018-07-06T12:08:22.023Z,22.58
2018-07-06T12:11:27.373Z,22.58
2018-07-06T12:14:34.770Z,22.65
2018-07-06T12:17:40.506Z,22.73
2018-07-06T12:20:45.690Z,22.73
2018-07-06T12:23:51.901Z,22.79
2018-07-06T12:26:58.293Z,22.80
2018-07-06T12:30:04.123Z,22.85
2018-07-06T12:33:08.985Z,22.94
2018-07-06T12:36:14.754Z,23.00
2018-07-06T12:39:20.493Z,23.06
2018-07-06T12:42:25.687Z,23.13
2018-07-06T12:45:31.471Z,23.18
2018-07-06T12:48:38.274Z,23.22
2018-07-06T12:51:43.693Z,23.29
2018-07-06T12:54:48.777Z,23.34
2018-07-06T12:57:54.238Z,23.40
2018-07-06T13:00:59.163Z,23.45
2018-07-06T13:04:04.251Z,23.48
2018-07-06T13:07:09.686Z,23.54
2018-07-06T13:10:14.782Z,23.57
2018-07-06T13:13:20.582Z,23.58
2018-07-06T13:16:26.299Z,23.61
2018-07-06T13:19:32.417Z,23.66
2018-07-06T13:22:37.522Z,23.68
2018-07-06T13:25:42.842Z,23.71
2018-07-06T13:28:48.482Z,23.76
2018-07-06T13:31:55.181Z,23.80
2018-07-06T13:35:00.914Z,23.82
2018-07-06T13:38:07.039Z,23.85
2018-07-06T13:41:13.059Z,23.87
2018-07-06T13:44:19.016Z,23.87
2018-07-06T13:47:24.088Z,23.88
2018-07-06T13:50:29.230Z,23.94
2018-07-06T13:53:34.350Z,23.94
2018-07-06T13:56:39.840Z,23.99
2018-07-06T13:59:46.110Z,24.02
2018-07-06T14:02:52.309Z,24.09
2018-07-06T14:05:58.098Z,24.10
2018-07-06T14:09:03.268Z,24.13
2018-07-06T14:12:09.210Z,24.18
2018-07-06T14:15:15.370Z,24.22
2018-07-06T14:18:20.414Z,24.25
2018-07-06T14:21:26.839Z,24.28
2018-07-06T14:24:31.986Z,24.31
2018-07-06T14:27:37.413Z,24.26
2018-07-06T14:30:42.556Z,24.30
2018-07-06T14:33:47.977Z,24.29
2018-07-06T14:36:53.091Z,24.27
2018-07-06T14:39:58.351Z,24.31
2018-07-06T14:43:03.678Z,24.28
2018-07-06T14:46:09.622Z,24.34
2018-07-06T14:49:14.761Z,24.29
2018-07-06T14:52:22.332Z,24.24
2018-07-06T14:55:28.397Z,24.24
2018-07-06T14:58:34.754Z,24.25
2018-07-06T15:01:40.624Z,24.25
2018-07-06T15:04:46.586Z,24.15
2018-07-06T15:07:52.532Z,24.16
2018-07-06T15:10:57.622Z,24.13
2018-07-06T15:14:02.756Z,24.12
2018-07-06T15:17:08.442Z,24.13
2018-07-06T15:20:15.871Z,24.10
2018-07-06T15:23:21.598Z,24.11
2018-07-06T15:26:27.054Z,24.08
2018-07-06T15:29:33.009Z,24.05
2018-07-06T15:32:38.114Z,24.00
2018-07-06T15:35:43.630Z,23.96
2018-07-06T15:38:49.873Z,23.89
2018-07-06T15:41:57.045Z,23.87
2018-07-06T15:45:02.770Z,23.84
2018-07-06T15:48:08.182Z,23.83
2018-07-06T15:51:14.510Z,23.82
2018-07-06T15:54:20.908Z,23.84
2018-07-06T15:57:26.540Z,23.75
2018-07-06T16:00:32.334Z,23.65
2018-07-06T16:03:37.463Z,23.61
2018-07-06T16:06:43.084Z,23.53
2018-07-06T16:09:48.242Z,23.49
2018-07-06T16:12:53.353Z,23.48
2018-07-06T16:15:59.695Z,23.43
2018-07-06T16:19:05.127Z,23.39
2018-07-06T16:22:10.449Z,23.32
2018-07-06T16:25:15.764Z,23.24
2018-07-06T16:28:20.891Z,23.20
2018-07-06T16:31:26.029Z,23.14
2018-07-06T16:34:31.354Z,23.08
2018-07-06T16:37:37.707Z,23.00
2018-07-06T16:40:43.368Z,22.96
2018-07-06T16:43:49.479Z,22.80
2018-07-06T16:46:55.855Z,22.79
2018-07-06T16:50:02.137Z,22.73
2018-07-06T16:53:08.122Z,22.60
2018-07-06T16:56:13.214Z,22.56
2018-07-06T16:59:18.493Z,22.52
2018-07-06T17:02:23.598Z,22.45
2018-07-06T17:05:28.455Z,22.38
2018-07-06T17:08:34.326Z,22.26
2018-07-06T17:11:39.770Z,22.15
2018-07-06T17:14:45.853Z,22.13
2018-07-06T17:17:51.556Z,22.07
2018-07-06T17:20:57.736Z,21.92
2018-07-06T17:24:03.914Z,21.87
2018-07-06T17:27:09.742Z,21.79
2018-07-06T17:30:14.831Z,21.71
2018-07-06T17:33:20.264Z,21.60
2018-07-06T17:36:25.477Z,21.58
2018-07-06T17:39:30.900Z,21.40
2018-07-06T17:42:36.910Z,21.36
2018-07-06T17:45:41.986Z,21.25
2018-07-06T17:48:48.554Z,21.16
2018-07-06T17:51:54.854Z,21.08
2018-07-06T17:55:00.454Z,20.99
2018-07-06T17:58:05.903Z,20.91
2018-07-06T18:01:12.125Z,20.78
2018-07-06T18:04:17.885Z,20.70
2018-07-06T18:07:23.917Z,20.62
2018-07-06T18:10:29.210Z,20.53
2018-07-06T18:13:34.910Z,20.44
2018-07-06T18:16:40.809Z,20.33
2018-07-06T18:19:46.528Z,20.27
2018-07-06T18:22:52.496Z,20.20
2018-07-06T18:25:58.782Z,20.08
2018-07-06T18:29:04.702Z,20.01
2018-07-06T18:32:09.836Z,19.93
2018-07-06T18:35:14.962Z,19.81
2018-07-06T18:38:20.054Z,19.69
2018-07-06T18:41:26.050Z,19.59
2018-07-06T18:44:32.045Z,19.45
2018-07-06T18:47:38.356Z,19.37
2018-07-06T18:50:43.814Z,19.21
2018-07-06T18:53:49.698Z,19.13
2018-07-06T18:56:54.854Z,18.99
2018-07-06T19:00:00.834Z,18.88
2018-07-06T19:03:06.426Z,18.83
2018-07-06T19:06:11.997Z,18.74
2018-07-06T19:09:17.894Z,18.64
2018-07-06T19:12:23.722Z,18.48
2018-07-06T19:15:29.753Z,18.31
2018-07-06T19:18:35.981Z,18.23
2018-07-06T19:21:42.027Z,18.14
2018-07-06T19:24:47.475Z,18.11
2018-07-06T19:27:53.858Z,17.98
2018-07-06T19:30:59.838Z,17.95
2018-07-06T19:34:05.986Z,17.94
2018-07-06T19:37:11.371Z,17.82
2018-07-06T19:40:17.277Z,17.79
2018-07-06T19:43:23.303Z,17.61
2018-07-06T19:46:29.532Z,17.50
2018-07-06T19:49:35.573Z,17.42
2018-07-06T19:52:40.432Z,17.35
2018-07-06T19:55:46.031Z,17.38
2018-07-06T19:58:51.151Z,17.29
2018-07-06T20:01:57.083Z,17.21
2018-07-06T20:05:03.091Z,17.22
2018-07-06T20:08:08.179Z,17.14
2018-07-06T20:11:13.283Z,17.07
2018-07-06T20:14:18.790Z,17.05
2018-07-06T20:17:24.119Z,16.96
2018-07-06T20:20:29.226Z,16.94
2018-07-06T20:23:34.317Z,16.79
2018-07-06T20:26:40.403Z,16.79
2018-07-06T20:29:45.934Z,16.71
2018-07-06T20:32:52.058Z,16.64
2018-07-06T20:35:57.494Z,16.56
2018-07-06T20:39:03.747Z,16.52
2018-07-06T20:42:09.159Z,16.42
2018-07-06T20:45:14.220Z,16.30
2018-07-06T20:48:19.350Z,16.25
2018-07-06T20:51:25.350Z,16.26
2018-07-06T20:54:31.287Z,16.19
2018-07-06T20:57:38.639Z,16.19
2018-07-06T21:00:44.694Z,16.17
2018-07-06T21:03:51.180Z,16.04
2018-07-06T21:06:56.909Z,15.98
2018-07-06T21:10:02.058Z,15.87
2018-07-06T21:13:07.506Z,15.90
2018-07-06T21:16:13.456Z,15.81
2018-07-06T21:19:20.035Z,15.81
2018-07-06T21:22:25.990Z,15.71
2018-07-06T21:25:31.511Z,15.63
2018-07-06T21:28:36.586Z,15.66
2018-07-06T21:31:41.401Z,15.57
2018-07-06T21:34:46.904Z,15.61
2018-07-06T21:37:52.923Z,15.46
2018-07-06T21:40:58.849Z,15.42
2018-07-06T21:44:03.957Z,15.44
2018-07-06T21:47:09.065Z,15.34
2018-07-06T21:50:14.717Z,15.31
2018-07-06T21:53:19.797Z,15.30
2018-07-06T21:56:25.237Z,15.24
2018-07-06T21:59:30.310Z,15.19
2018-07-06T22:02:35.685Z,15.14
2018-07-06T22:05:42.366Z,15.10
2018-07-06T22:08:48.222Z,15.11
2018-07-06T22:11:53.382Z,15.03
2018-07-06T22:14:59.422Z,14.96
2018-07-06T22:18:05.361Z,14.92
2018-07-06T22:21:10.485Z,14.84
2018-07-06T22:24:15.930Z,14.85
2018-07-06T22:27:21.959Z,14.86
2018-07-06T22:30:27.893Z,14.85
2018-07-06T22:33:32.995Z,14.81
2018-07-06T22:36:38.276Z,14.70
2018-07-06T22:39:43.408Z,14.67
2018-07-06T22:42:49.745Z,14.65
2018-07-06T22:45:54.555Z,14.64
2018-07-06T22:49:00.174Z,14.60
2018-07-06T22:52:06.473Z,14.55
2018-07-06T22:55:12.617Z,14.52
2018-07-06T22:58:18.963Z,14.60
2018-07-06T23:01:25.004Z,14.51
2018-07-06T23:04:30.691Z,14.51
2018-07-06T23:07:36.682Z,14.48
2018-07-06T23:10:42.205Z,14.46
2018-07-06T23:13:47.026Z,14.40
2018-07-06T23:16:52.112Z,14.31
2018-07-06T23:19:57.211Z,14.37
2018-07-06T23:23:07.377Z,14.29
2018-07-06T23:26:12.497Z,14.30
2018-07-06T23:29:17.601Z,14.24
2018-07-06T23:32:22.708Z,14.17
2018-07-06T23:35:27.598Z,14.19
2018-07-06T23:38:32.685Z,14.22
2018-07-06T23:41:39.102Z,14.14
2018-07-06T23:44:44.793Z,14.19
2018-07-06T23:47:50.099Z,14.11
2018-07-06T23:50:56.013Z,14.12
2018-07-06T23:54:02.122Z,14.09
2018-07-06T23:57:07.214Z,14.01
